sensor_id;sensor_type;location;lat;lon;timestamp;pressure;altitude;pressure_sealevel;temperature;humidity
62928;BME280;51070;52.236;-0.892;2023-04-24T00:01:14;99704.42;;;9.81;84.72
62928;BME280;51070;52.236;-0.892;2023-04-24T00:03:40;99707.87;;;9.81;84.88
62928;BME280;51070;52.236;-0.892;2023-04-24T00:06:06;99717.33;;;9.80;84.95
62928;BME280;51070;52.236;-0.892;2023-04-24T00:08:34;99716.92;;;9.77;84.74
62928;BME280;51070;52.236;-0.892;2023-04-24T00:11:00;99717.43;;;9.76;85.25
62928;BME280;51070;52.236;-0.892;2023-04-24T00:13:25;99720.69;;;9.75;85.44
62928;BME280;51070;52.236;-0.892;2023-04-24T00:15:54;99725.03;;;9.76;85.73
62928;BME280;51070;52.236;-0.892;2023-04-24T00:18:19;99725.05;;;9.76;85.85
62928;BME280;51070;52.236;-0.892;2023-04-24T00:20:45;99728.71;;;9.80;86.08
62928;BME280;51070;52.236;-0.892;2023-04-24T00:23:12;99728.42;;;9.82;86.27
62928;BME280;51070;52.236;-0.892;2023-04-24T00:25:37;99733.13;;;9.85;86.58
62928;BME280;51070;52.236;-0.892;2023-04-24T00:28:03;99732.21;;;9.82;86.34
62928;BME280;51070;52.236;-0.892;2023-04-24T00:30:29;99732.67;;;9.79;86.64
62928;BME280;51070;52.236;-0.892;2023-04-24T00:32:54;99737.36;;;9.80;86.75
62928;BME280;51070;52.236;-0.892;2023-04-24T00:35:19;99736.54;;;9.82;86.33
62928;BME280;51070;52.236;-0.892;2023-04-24T00:37:45;99736.38;;;9.83;86.05
62928;BME280;51070;52.236;-0.892;2023-04-24T00:40:11;99737.58;;;9.83;85.92
62928;BME280;51070;52.236;-0.892;2023-04-24T00:42:37;99738.78;;;9.83;85.72
62928;BME280;51070;52.236;-0.892;2023-04-24T00:45:04;99740.02;;;9.84;85.88
62928;BME280;51070;52.236;-0.892;2023-04-24T00:47:32;99741.90;;;9.84;86.10
62928;BME280;51070;52.236;-0.892;2023-04-24T00:49:58;99742.80;;;9.85;86.21
62928;BME280;51070;52.236;-0.892;2023-04-24T00:52:25;99746.61;;;9.85;85.85
62928;BME280;51070;52.236;-0.892;2023-04-24T00:54:50;99749.89;;;9.86;86.48
62928;BME280;51070;52.236;-0.892;2023-04-24T00:57:16;99755.46;;;9.87;86.31
62928;BME280;51070;52.236;-0.892;2023-04-24T00:59:42;99760.25;;;9.86;85.73
62928;BME280;51070;52.236;-0.892;2023-04-24T01:02:09;99763.84;;;9.84;85.81
62928;BME280;51070;52.236;-0.892;2023-04-24T01:04:36;99765.29;;;9.79;85.19
62928;BME280;51070;52.236;-0.892;2023-04-24T01:07:01;99767.05;;;9.73;84.47
62928;BME280;51070;52.236;-0.892;2023-04-24T01:09:27;99771.90;;;9.65;83.17
62928;BME280;51070;52.236;-0.892;2023-04-24T01:11:52;99768.86;;;9.60;82.85
62928;BME280;51070;52.236;-0.892;2023-04-24T01:14:18;99778.93;;;9.54;82.21
62928;BME280;51070;52.236;-0.892;2023-04-24T01:16:43;99778.64;;;9.49;82.11
62928;BME280;51070;52.236;-0.892;2023-04-24T01:19:10;99775.44;;;9.45;82.37
62928;BME280;51070;52.236;-0.892;2023-04-24T01:21:37;99780.73;;;9.43;82.42
62928;BME280;51070;52.236;-0.892;2023-04-24T01:24:06;99784.44;;;9.38;82.38
62928;BME280;51070;52.236;-0.892;2023-04-24T01:26:32;99789.02;;;9.35;82.52
62928;BME280;51070;52.236;-0.892;2023-04-24T01:28:57;99787.92;;;9.32;82.62
62928;BME280;51070;52.236;-0.892;2023-04-24T01:31:23;99793.77;;;9.31;82.93
62928;BME280;51070;52.236;-0.892;2023-04-24T01:33:49;99790.45;;;9.29;82.47
62928;BME280;51070;52.236;-0.892;2023-04-24T01:36:16;99792.92;;;9.25;82.23
62928;BME280;51070;52.236;-0.892;2023-04-24T01:38:42;99800.83;;;9.24;82.12
62928;BME280;51070;52.236;-0.892;2023-04-24T01:41:07;99803.08;;;9.24;82.49
62928;BME280;51070;52.236;-0.892;2023-04-24T01:43:33;99805.19;;;9.25;82.25
62928;BME280;51070;52.236;-0.892;2023-04-24T01:45:59;99809.48;;;9.25;82.06
62928;BME280;51070;52.236;-0.892;2023-04-24T01:48:24;99813.27;;;9.25;82.05
62928;BME280;51070;52.236;-0.892;2023-04-24T01:50:50;99810.65;;;9.23;82.27
62928;BME280;51070;52.236;-0.892;2023-04-24T01:53:15;99807.73;;;9.23;82.47
62928;BME280;51070;52.236;-0.892;2023-04-24T01:55:41;99804.80;;;9.24;82.16
62928;BME280;51070;52.236;-0.892;2023-04-24T01:58:06;99809.42;;;9.22;82.19
62928;BME280;51070;52.236;-0.892;2023-04-24T02:00:32;99807.80;;;9.19;82.10
62928;BME280;51070;52.236;-0.892;2023-04-24T02:02:58;99808.05;;;9.16;81.66
62928;BME280;51070;52.236;-0.892;2023-04-24T02:05:24;99812.42;;;9.10;81.29
62928;BME280;51070;52.236;-0.892;2023-04-24T02:07:49;99814.16;;;9.04;80.94
62928;BME280;51070;52.236;-0.892;2023-04-24T02:10:15;99813.02;;;9.00;80.52
62928;BME280;51070;52.236;-0.892;2023-04-24T02:12:40;99814.11;;;8.95;80.37
62928;BME280;51070;52.236;-0.892;2023-04-24T02:15:06;99816.26;;;8.91;80.70
62928;BME280;51070;52.236;-0.892;2023-04-24T02:17:32;99816.83;;;8.86;80.59
62928;BME280;51070;52.236;-0.892;2023-04-24T02:19:57;99820.02;;;8.83;80.89
62928;BME280;51070;52.236;-0.892;2023-04-24T02:22:22;99817.59;;;8.82;80.78
62928;BME280;51070;52.236;-0.892;2023-04-24T02:24:48;99821.75;;;8.76;80.23
62928;BME280;51070;52.236;-0.892;2023-04-24T02:27:13;99826.36;;;8.68;79.80
62928;BME280;51070;52.236;-0.892;2023-04-24T02:29:38;99832.32;;;8.58;79.60
62928;BME280;51070;52.236;-0.892;2023-04-24T02:32:04;99838.84;;;8.51;79.77
62928;BME280;51070;52.236;-0.892;2023-04-24T02:34:29;99841.59;;;8.45;79.78
62928;BME280;51070;52.236;-0.892;2023-04-24T02:36:55;99843.65;;;8.38;79.64
62928;BME280;51070;52.236;-0.892;2023-04-24T02:39:21;99845.41;;;8.32;79.87
62928;BME280;51070;52.236;-0.892;2023-04-24T02:41:46;99841.95;;;8.27;79.67
62928;BME280;51070;52.236;-0.892;2023-04-24T02:44:12;99840.27;;;8.22;79.72
62928;BME280;51070;52.236;-0.892;2023-04-24T02:46:37;99842.58;;;8.18;79.77
62928;BME280;51070;52.236;-0.892;2023-04-24T02:49:03;99845.05;;;8.15;79.81
62928;BME280;51070;52.236;-0.892;2023-04-24T02:51:29;99845.89;;;8.14;79.86
62928;BME280;51070;52.236;-0.892;2023-04-24T02:53:54;99853.04;;;8.11;79.53
62928;BME280;51070;52.236;-0.892;2023-04-24T02:56:20;99853.75;;;8.06;79.45
62928;BME280;51070;52.236;-0.892;2023-04-24T02:58:45;99850.84;;;8.00;79.54
62928;BME280;51070;52.236;-0.892;2023-04-24T03:01:11;99854.52;;;7.96;79.26
62928;BME280;51070;52.236;-0.892;2023-04-24T03:03:37;99856.09;;;7.91;79.42
62928;BME280;51070;52.236;-0.892;2023-04-24T03:06:03;99859.04;;;7.86;79.43
62928;BME280;51070;52.236;-0.892;2023-04-24T03:08:33;99867.45;;;7.80;79.29
62928;BME280;51070;52.236;-0.892;2023-04-24T03:10:59;99868.65;;;7.74;79.22
62928;BME280;51070;52.236;-0.892;2023-04-24T03:13:25;99869.30;;;7.68;78.98
62928;BME280;51070;52.236;-0.892;2023-04-24T03:15:50;99875.33;;;7.61;79.04
62928;BME280;51070;52.236;-0.892;2023-04-24T03:18:15;99883.45;;;7.58;79.44
62928;BME280;51070;52.236;-0.892;2023-04-24T03:20:41;99885.34;;;7.57;79.41
62928;BME280;51070;52.236;-0.892;2023-04-24T03:23:07;99888.25;;;7.57;79.43
62928;BME280;51070;52.236;-0.892;2023-04-24T03:25:32;99888.39;;;7.56;79.31
62928;BME280;51070;52.236;-0.892;2023-04-24T03:27:57;99894.73;;;7.55;79.34
62928;BME280;51070;52.236;-0.892;2023-04-24T03:30:23;99899.57;;;7.56;79.43
62928;BME280;51070;52.236;-0.892;2023-04-24T03:32:48;99900.06;;;7.55;79.35
62928;BME280;51070;52.236;-0.892;2023-04-24T03:35:14;99901.08;;;7.55;79.78
62928;BME280;51070;52.236;-0.892;2023-04-24T03:37:39;99910.22;;;7.55;79.58
62928;BME280;51070;52.236;-0.892;2023-04-24T03:40:05;99916.05;;;7.55;79.55
62928;BME280;51070;52.236;-0.892;2023-04-24T03:42:32;99915.05;;;7.56;79.40
62928;BME280;51070;52.236;-0.892;2023-04-24T03:44:57;99922.00;;;7.58;79.25
62928;BME280;51070;52.236;-0.892;2023-04-24T03:47:23;99914.83;;;7.60;79.38
62928;BME280;51070;52.236;-0.892;2023-04-24T03:49:48;99915.23;;;7.63;79.16
62928;BME280;51070;52.236;-0.892;2023-04-24T03:52:14;99914.41;;;7.63;78.92
62928;BME280;51070;52.236;-0.892;2023-04-24T03:54:40;99916.40;;;7.61;78.75
62928;BME280;51070;52.236;-0.892;2023-04-24T03:57:05;99918.35;;;7.57;78.71
62928;BME280;51070;52.236;-0.892;2023-04-24T03:59:31;99914.23;;;7.57;78.66
62928;BME280;51070;52.236;-0.892;2023-04-24T04:01:56;99917.52;;;7.58;78.47
62928;BME280;51070;52.236;-0.892;2023-04-24T04:04:21;99920.87;;;7.61;78.31
62928;BME280;51070;52.236;-0.892;2023-04-24T04:06:47;99921.09;;;7.63;77.96
62928;BME280;51070;52.236;-0.892;2023-04-24T04:09:13;99922.17;;;7.64;78.12
62928;BME280;51070;52.236;-0.892;2023-04-24T04:11:39;99925.43;;;7.64;77.81
62928;BME280;51070;52.236;-0.892;2023-04-24T04:14:04;99929.92;;;7.65;77.88
62928;BME280;51070;52.236;-0.892;2023-04-24T04:16:30;99933.53;;;7.64;77.51
62928;BME280;51070;52.236;-0.892;2023-04-24T04:18:56;99941.73;;;7.63;77.49
62928;BME280;51070;52.236;-0.892;2023-04-24T04:21:21;99949.29;;;7.63;77.64
62928;BME280;51070;52.236;-0.892;2023-04-24T04:23:47;99952.94;;;7.64;77.45
62928;BME280;51070;52.236;-0.892;2023-04-24T04:26:13;99952.80;;;7.64;77.15
62928;BME280;51070;52.236;-0.892;2023-04-24T04:28:39;99961.95;;;7.66;76.82
62928;BME280;51070;52.236;-0.892;2023-04-24T04:31:05;99964.71;;;7.66;76.75
62928;BME280;51070;52.236;-0.892;2023-04-24T04:33:33;99968.69;;;7.67;76.29
62928;BME280;51070;52.236;-0.892;2023-04-24T04:35:59;99970.58;;;7.67;75.99
62928;BME280;51070;52.236;-0.892;2023-04-24T04:38:25;99973.66;;;7.67;76.23
62928;BME280;51070;52.236;-0.892;2023-04-24T04:40:55;99976.13;;;7.68;76.29
62928;BME280;51070;52.236;-0.892;2023-04-24T04:43:23;99977.40;;;7.70;76.03
62928;BME280;51070;52.236;-0.892;2023-04-24T04:45:49;99972.16;;;7.73;76.04
62928;BME280;51070;52.236;-0.892;2023-04-24T04:48:17;99974.55;;;7.78;75.64
62928;BME280;51070;52.236;-0.892;2023-04-24T04:50:42;99978.86;;;7.79;75.60
62928;BME280;51070;52.236;-0.892;2023-04-24T04:53:08;99978.02;;;7.79;75.27
62928;BME280;51070;52.236;-0.892;2023-04-24T04:55:33;99980.73;;;7.83;75.26
62928;BME280;51070;52.236;-0.892;2023-04-24T04:57:59;99985.08;;;7.85;74.94
62928;BME280;51070;52.236;-0.892;2023-04-24T05:00:25;99990.81;;;7.86;74.84
62928;BME280;51070;52.236;-0.892;2023-04-24T05:02:51;99992.21;;;7.87;74.94
62928;BME280;51070;52.236;-0.892;2023-04-24T05:05:17;99999.98;;;7.89;74.58
62928;BME280;51070;52.236;-0.892;2023-04-24T05:07:43;100003.06;;;7.88;74.30
62928;BME280;51070;52.236;-0.892;2023-04-24T05:10:09;100006.67;;;7.88;74.54
62928;BME280;51070;52.236;-0.892;2023-04-24T05:12:36;100009.95;;;7.87;74.48
62928;BME280;51070;52.236;-0.892;2023-04-24T05:15:02;100013.40;;;7.88;74.17
62928;BME280;51070;52.236;-0.892;2023-04-24T05:17:28;100013.84;;;7.86;73.79
62928;BME280;51070;52.236;-0.892;2023-04-24T05:19:54;100016.70;;;7.84;74.15
62928;BME280;51070;52.236;-0.892;2023-04-24T05:22:20;100019.16;;;7.85;73.67
62928;BME280;51070;52.236;-0.892;2023-04-24T05:24:47;100025.94;;;7.87;73.34
62928;BME280;51070;52.236;-0.892;2023-04-24T05:27:13;100029.27;;;7.90;73.18
62928;BME280;51070;52.236;-0.892;2023-04-24T05:29:38;100028.46;;;7.91;72.66
62928;BME280;51070;52.236;-0.892;2023-04-24T05:32:04;100029.75;;;7.93;72.83
62928;BME280;51070;52.236;-0.892;2023-04-24T05:34:30;100030.48;;;7.95;72.64
62928;BME280;51070;52.236;-0.892;2023-04-24T05:36:55;100030.16;;;7.96;72.21
62928;BME280;51070;52.236;-0.892;2023-04-24T05:39:21;100025.70;;;7.96;72.08
62928;BME280;51070;52.236;-0.892;2023-04-24T05:41:46;100029.67;;;7.97;72.06
62928;BME280;51070;52.236;-0.892;2023-04-24T05:44:11;100036.40;;;7.97;72.00
62928;BME280;51070;52.236;-0.892;2023-04-24T05:46:37;100037.56;;;7.96;71.72
62928;BME280;51070;52.236;-0.892;2023-04-24T05:49:02;100044.20;;;7.93;71.53
62928;BME280;51070;52.236;-0.892;2023-04-24T05:51:28;100043.91;;;7.90;71.55
62928;BME280;51070;52.236;-0.892;2023-04-24T05:53:54;100046.13;;;7.89;71.74
62928;BME280;51070;52.236;-0.892;2023-04-24T05:56:20;100041.73;;;7.86;71.51
62928;BME280;51070;52.236;-0.892;2023-04-24T05:58:46;100042.27;;;7.87;71.44
62928;BME280;51070;52.236;-0.892;2023-04-24T06:01:12;100048.73;;;7.90;71.40
62928;BME280;51070;52.236;-0.892;2023-04-24T06:03:40;100049.77;;;7.96;71.27
62928;BME280;51070;52.236;-0.892;2023-04-24T06:06:06;100051.17;;;8.02;71.10
62928;BME280;51070;52.236;-0.892;2023-04-24T06:08:32;100052.92;;;8.14;70.97
62928;BME280;51070;52.236;-0.892;2023-04-24T06:10:58;100056.52;;;8.24;70.57
62928;BME280;51070;52.236;-0.892;2023-04-24T06:13:23;100060.71;;;8.36;70.34
62928;BME280;51070;52.236;-0.892;2023-04-24T06:15:49;100062.07;;;8.53;70.25
62928;BME280;51070;52.236;-0.892;2023-04-24T06:18:15;100067.69;;;8.74;69.69
62928;BME280;51070;52.236;-0.892;2023-04-24T06:20:40;100064.81;;;8.88;68.97
62928;BME280;51070;52.236;-0.892;2023-04-24T06:23:09;100062.91;;;9.00;68.53
62928;BME280;51070;52.236;-0.892;2023-04-24T06:25:34;100063.40;;;9.12;68.46
62928;BME280;51070;52.236;-0.892;2023-04-24T06:28:00;100064.55;;;9.35;68.45
62928;BME280;51070;52.236;-0.892;2023-04-24T06:30:25;100062.76;;;9.58;67.85
62928;BME280;51070;52.236;-0.892;2023-04-24T06:32:52;100061.67;;;9.77;67.24
62928;BME280;51070;52.236;-0.892;2023-04-24T06:35:18;100060.48;;;9.92;66.40
62928;BME280;51070;52.236;-0.892;2023-04-24T06:37:43;100064.45;;;10.12;65.81
62928;BME280;51070;52.236;-0.892;2023-04-24T06:40:12;100066.23;;;10.29;64.44
62928;BME280;51070;52.236;-0.892;2023-04-24T06:42:38;100068.67;;;10.45;64.05
62928;BME280;51070;52.236;-0.892;2023-04-24T06:45:07;100070.14;;;10.57;63.68
62928;BME280;51070;52.236;-0.892;2023-04-24T06:47:33;100070.84;;;10.65;63.23
62928;BME280;51070;52.236;-0.892;2023-04-24T06:49:58;100067.16;;;10.79;63.07
62928;BME280;51070;52.236;-0.892;2023-04-24T06:52:24;100068.08;;;10.90;61.67
62928;BME280;51070;52.236;-0.892;2023-04-24T06:54:49;100070.56;;;10.93;61.10
62928;BME280;51070;52.236;-0.892;2023-04-24T06:57:15;100075.20;;;11.00;60.85
62928;BME280;51070;52.236;-0.892;2023-04-24T06:59:43;100074.73;;;11.03;60.66
62928;BME280;51070;52.236;-0.892;2023-04-24T07:02:09;100074.61;;;11.06;60.62
62928;BME280;51070;52.236;-0.892;2023-04-24T07:04:34;100075.46;;;11.13;60.20
62928;BME280;51070;52.236;-0.892;2023-04-24T07:07:00;100078.14;;;11.17;59.37
62928;BME280;51070;52.236;-0.892;2023-04-24T07:09:26;100081.95;;;11.18;58.71
62928;BME280;51070;52.236;-0.892;2023-04-24T07:11:52;100083.47;;;11.16;58.94
62928;BME280;51070;52.236;-0.892;2023-04-24T07:14:19;100089.80;;;11.13;58.31
62928;BME280;51070;52.236;-0.892;2023-04-24T07:16:44;100086.75;;;11.07;58.44
62928;BME280;51070;52.236;-0.892;2023-04-24T07:19:11;100082.38;;;11.05;58.39
62928;BME280;51070;52.236;-0.892;2023-04-24T07:21:36;100084.20;;;10.92;58.20
62928;BME280;51070;52.236;-0.892;2023-04-24T07:24:04;100085.63;;;10.94;59.06
62928;BME280;51070;52.236;-0.892;2023-04-24T07:26:30;100091.44;;;11.07;58.86
62928;BME280;51070;52.236;-0.892;2023-04-24T07:28:56;100094.26;;;11.19;58.47
62928;BME280;51070;52.236;-0.892;2023-04-24T07:31:22;100095.34;;;11.30;57.79
62928;BME280;51070;52.236;-0.892;2023-04-24T07:33:48;100098.25;;;11.38;57.67
62928;BME280;51070;52.236;-0.892;2023-04-24T07:36:14;100093.67;;;11.52;57.88
62928;BME280;51070;52.236;-0.892;2023-04-24T07:38:45;100097.36;;;11.64;56.96
62928;BME280;51070;52.236;-0.892;2023-04-24T07:41:10;100097.71;;;11.73;57.10
62928;BME280;51070;52.236;-0.892;2023-04-24T07:43:36;100096.96;;;11.90;56.87
62928;BME280;51070;52.236;-0.892;2023-04-24T07:46:01;100095.55;;;11.98;56.02
62928;BME280;51070;52.236;-0.892;2023-04-24T07:48:27;100094.15;;;12.07;55.45
62928;BME280;51070;52.236;-0.892;2023-04-24T07:50:53;100094.46;;;12.16;55.38
62928;BME280;51070;52.236;-0.892;2023-04-24T07:53:19;100095.89;;;12.31;55.01
62928;BME280;51070;52.236;-0.892;2023-04-24T07:55:45;100094.39;;;12.46;53.58
62928;BME280;51070;52.236;-0.892;2023-04-24T07:58:10;100096.13;;;12.58;53.53
62928;BME280;51070;52.236;-0.892;2023-04-24T08:00:36;100098.70;;;12.81;53.40
62928;BME280;51070;52.236;-0.892;2023-04-24T08:03:01;100100.15;;;13.00;53.01
62928;BME280;51070;52.236;-0.892;2023-04-24T08:05:27;100099.17;;;13.18;52.40
62928;BME280;51070;52.236;-0.892;2023-04-24T08:07:54;100101.17;;;13.39;52.65
62928;BME280;51070;52.236;-0.892;2023-04-24T08:10:24;100104.47;;;13.39;51.93
62928;BME280;51070;52.236;-0.892;2023-04-24T08:12:50;100109.36;;;13.28;51.78
62928;BME280;51070;52.236;-0.892;2023-04-24T08:15:16;100105.61;;;13.18;52.09
62928;BME280;51070;52.236;-0.892;2023-04-24T08:17:41;100110.31;;;13.08;52.01
62928;BME280;51070;52.236;-0.892;2023-04-24T08:20:08;100114.97;;;12.92;51.86
62928;BME280;51070;52.236;-0.892;2023-04-24T08:22:39;100113.69;;;12.74;52.32
62928;BME280;51070;52.236;-0.892;2023-04-24T08:25:06;100110.26;;;12.64;52.89
62928;BME280;51070;52.236;-0.892;2023-04-24T08:27:32;100109.35;;;12.61;52.75
62928;BME280;51070;52.236;-0.892;2023-04-24T08:29:58;100113.60;;;12.68;52.64
62928;BME280;51070;52.236;-0.892;2023-04-24T08:32:26;100115.64;;;12.78;52.50
62928;BME280;51070;52.236;-0.892;2023-04-24T08:34:55;100115.63;;;12.77;52.17
62928;BME280;51070;52.236;-0.892;2023-04-24T08:37:22;100113.02;;;12.64;52.61
62928;BME280;51070;52.236;-0.892;2023-04-24T08:39:47;100115.55;;;12.47;52.39
62928;BME280;51070;52.236;-0.892;2023-04-24T08:42:14;100116.31;;;12.29;52.25
62928;BME280;51070;52.236;-0.892;2023-04-24T08:44:40;100119.70;;;12.13;52.51
62928;BME280;51070;52.236;-0.892;2023-04-24T08:47:07;100118.39;;;12.07;52.47
62928;BME280;51070;52.236;-0.892;2023-04-24T08:49:35;100117.02;;;12.09;52.56
62928;BME280;51070;52.236;-0.892;2023-04-24T08:52:02;100119.86;;;12.23;52.86
62928;BME280;51070;52.236;-0.892;2023-04-24T08:54:28;100123.09;;;12.41;52.86
62928;BME280;51070;52.236;-0.892;2023-04-24T08:56:58;100127.06;;;12.52;52.15
62928;BME280;51070;52.236;-0.892;2023-04-24T08:59:27;100132.72;;;12.59;52.53
62928;BME280;51070;52.236;-0.892;2023-04-24T09:01:54;100137.30;;;12.65;52.50
62928;BME280;51070;52.236;-0.892;2023-04-24T09:04:20;100137.14;;;12.53;52.26
62928;BME280;51070;52.236;-0.892;2023-04-24T09:06:48;100140.65;;;12.35;52.25
62928;BME280;51070;52.236;-0.892;2023-04-24T09:09:16;100139.15;;;12.17;52.78
62928;BME280;51070;52.236;-0.892;2023-04-24T09:11:43;100138.91;;;12.12;53.30
62928;BME280;51070;52.236;-0.892;2023-04-24T09:14:09;100141.32;;;12.22;53.19
62928;BME280;51070;52.236;-0.892;2023-04-24T09:16:35;100141.15;;;12.43;52.53
62928;BME280;51070;52.236;-0.892;2023-04-24T09:19:01;100141.00;;;12.68;52.78
62928;BME280;51070;52.236;-0.892;2023-04-24T09:21:34;100141.51;;;13.05;52.48
62928;BME280;51070;52.236;-0.892;2023-04-24T09:24:05;100132.55;;;13.52;51.72
62928;BME280;51070;52.236;-0.892;2023-04-24T09:26:36;100132.73;;;13.88;50.65
62928;BME280;51070;52.236;-0.892;2023-04-24T09:29:03;100137.09;;;14.49;49.82
62928;BME280;51070;52.236;-0.892;2023-04-24T09:31:29;100133.72;;;15.34;47.43
62928;BME280;51070;52.236;-0.892;2023-04-24T09:34:00;100130.98;;;15.48;47.65
62928;BME280;51070;52.236;-0.892;2023-04-24T09:36:31;100133.92;;;15.42;47.85
62928;BME280;51070;52.236;-0.892;2023-04-24T09:39:00;100138.20;;;15.20;47.51
62928;BME280;51070;52.236;-0.892;2023-04-24T09:41:26;100142.25;;;14.94;47.66
62928;BME280;51070;52.236;-0.892;2023-04-24T09:43:56;100143.67;;;14.70;48.12
62928;BME280;51070;52.236;-0.892;2023-04-24T09:46:30;100148.15;;;14.40;48.13
62928;BME280;51070;52.236;-0.892;2023-04-24T09:49:07;100150.84;;;14.10;48.45
62928;BME280;51070;52.236;-0.892;2023-04-24T09:51:35;100153.33;;;13.96;48.84
62928;BME280;51070;52.236;-0.892;2023-04-24T09:54:02;100153.73;;;13.86;48.97
62928;BME280;51070;52.236;-0.892;2023-04-24T09:56:32;100160.21;;;13.74;49.44
62928;BME280;51070;52.236;-0.892;2023-04-24T09:59:07;100161.69;;;13.67;49.54
62928;BME280;51070;52.236;-0.892;2023-04-24T10:01:33;100157.08;;;13.57;49.28
62928;BME280;51070;52.236;-0.892;2023-04-24T10:03:59;100159.94;;;13.50;49.68
62928;BME280;51070;52.236;-0.892;2023-04-24T10:06:34;100155.26;;;13.50;49.48
62928;BME280;51070;52.236;-0.892;2023-04-24T10:09:00;100155.11;;;13.52;49.32
62928;BME280;51070;52.236;-0.892;2023-04-24T10:11:30;100154.02;;;13.63;49.70
62928;BME280;51070;52.236;-0.892;2023-04-24T10:13:56;100155.94;;;13.98;49.65
62928;BME280;51070;52.236;-0.892;2023-04-24T10:16:23;100157.08;;;14.10;49.01
62928;BME280;51070;52.236;-0.892;2023-04-24T10:18:48;100162.15;;;14.12;48.89
62928;BME280;51070;52.236;-0.892;2023-04-24T10:21:16;100161.28;;;14.12;48.35
62928;BME280;51070;52.236;-0.892;2023-04-24T10:23:42;100159.30;;;14.24;48.04
62928;BME280;51070;52.236;-0.892;2023-04-24T10:26:12;100155.23;;;14.59;47.81
62928;BME280;51070;52.236;-0.892;2023-04-24T10:28:45;100163.89;;;14.76;47.37
62928;BME280;51070;52.236;-0.892;2023-04-24T10:31:12;100165.59;;;14.99;47.32
62928;BME280;51070;52.236;-0.892;2023-04-24T10:33:40;100162.56;;;15.19;46.82
62928;BME280;51070;52.236;-0.892;2023-04-24T10:36:07;100160.76;;;15.45;46.57
62928;BME280;51070;52.236;-0.892;2023-04-24T10:38:34;100158.95;;;15.79;45.70
62928;BME280;51070;52.236;-0.892;2023-04-24T10:41:11;100157.95;;;16.58;44.89
62928;BME280;51070;52.236;-0.892;2023-04-24T10:44:03;100147.48;;;17.72;42.85
62928;BME280;51070;52.236;-0.892;2023-04-24T10:46:30;100152.07;;;18.39;41.39
62928;BME280;51070;52.236;-0.892;2023-04-24T10:48:56;100150.73;;;18.53;40.78
62928;BME280;51070;52.236;-0.892;2023-04-24T10:51:23;100154.17;;;18.39;40.91
62928;BME280;51070;52.236;-0.892;2023-04-24T10:53:52;100152.30;;;18.31;40.22
62928;BME280;51070;52.236;-0.892;2023-04-24T10:56:17;100149.34;;;18.10;40.61
62928;BME280;51070;52.236;-0.892;2023-04-24T10:58:45;100150.80;;;18.00;40.92
62928;BME280;51070;52.236;-0.892;2023-04-24T11:01:25;100154.79;;;18.04;40.33
62928;BME280;51070;52.236;-0.892;2023-04-24T11:03:57;100159.50;;;18.06;39.91
62928;BME280;51070;52.236;-0.892;2023-04-24T11:06:34;100161.70;;;17.90;39.98
62928;BME280;51070;52.236;-0.892;2023-04-24T11:11:33;100170.31;;;17.45;41.26
62928;BME280;51070;52.236;-0.892;2023-04-24T11:16:51;100182.16;;;17.03;41.23
62928;BME280;51070;52.236;-0.892;2023-04-24T11:19:20;100183.59;;;16.89;41.49
62928;BME280;51070;52.236;-0.892;2023-04-24T11:22:01;100183.60;;;16.79;41.48
62928;BME280;51070;52.236;-0.892;2023-04-24T11:24:48;100182.21;;;16.78;41.54
62928;BME280;51070;52.236;-0.892;2023-04-24T11:27:16;100183.08;;;16.84;41.92
62928;BME280;51070;52.236;-0.892;2023-04-24T11:34:50;100193.84;;;17.10;40.99
62928;BME280;51070;52.236;-0.892;2023-04-24T11:37:16;100192.80;;;17.07;41.11
62928;BME280;51070;52.236;-0.892;2023-04-24T11:39:42;100196.98;;;17.08;41.39
62928;BME280;51070;52.236;-0.892;2023-04-24T11:42:14;100199.09;;;17.10;41.25
62928;BME280;51070;52.236;-0.892;2023-04-24T11:44:42;100202.05;;;17.06;40.00
62928;BME280;51070;52.236;-0.892;2023-04-24T11:47:08;100202.60;;;16.89;39.61
62928;BME280;51070;52.236;-0.892;2023-04-24T11:49:36;100203.33;;;16.82;39.40
62928;BME280;51070;52.236;-0.892;2023-04-24T11:52:02;100202.12;;;16.66;39.71
62928;BME280;51070;52.236;-0.892;2023-04-24T11:54:28;100204.88;;;16.54;39.54
62928;BME280;51070;52.236;-0.892;2023-04-24T11:56:53;100208.89;;;16.53;39.98
62928;BME280;51070;52.236;-0.892;2023-04-24T11:59:19;100207.85;;;16.49;39.49
62928;BME280;51070;52.236;-0.892;2023-04-24T12:01:45;100208.02;;;16.49;40.14
62928;BME280;51070;52.236;-0.892;2023-04-24T12:04:11;100204.20;;;16.65;40.43
62928;BME280;51070;52.236;-0.892;2023-04-24T12:06:37;100205.77;;;16.77;40.10
62928;BME280;51070;52.236;-0.892;2023-04-24T12:09:02;100209.41;;;16.90;39.95
62928;BME280;51070;52.236;-0.892;2023-04-24T12:11:28;100206.79;;;16.94;39.67
62928;BME280;51070;52.236;-0.892;2023-04-24T12:13:54;100204.69;;;16.98;40.21
62928;BME280;51070;52.236;-0.892;2023-04-24T12:16:19;100205.02;;;17.03;40.07
62928;BME280;51070;52.236;-0.892;2023-04-24T12:18:45;100207.31;;;16.94;39.50
62928;BME280;51070;52.236;-0.892;2023-04-24T12:21:23;100209.78;;;16.82;39.67
62928;BME280;51070;52.236;-0.892;2023-04-24T12:23:54;100210.48;;;16.74;39.39
62928;BME280;51070;52.236;-0.892;2023-04-24T12:26:20;100211.70;;;16.78;39.58
62928;BME280;51070;52.236;-0.892;2023-04-24T12:28:47;100210.13;;;16.85;39.72
62928;BME280;51070;52.236;-0.892;2023-04-24T12:31:14;100207.84;;;16.95;39.48
62928;BME280;51070;52.236;-0.892;2023-04-24T12:33:40;100206.24;;;17.04;39.31
62928;BME280;51070;52.236;-0.892;2023-04-24T12:36:06;100205.88;;;17.14;39.43
62928;BME280;51070;52.236;-0.892;2023-04-24T12:38:31;100206.71;;;17.26;38.96
62928;BME280;51070;52.236;-0.892;2023-04-24T12:41:09;100203.75;;;17.22;38.50
62928;BME280;51070;52.236;-0.892;2023-04-24T12:43:36;100209.38;;;17.06;38.46
62928;BME280;51070;52.236;-0.892;2023-04-24T12:46:02;100209.95;;;16.76;39.06
62928;BME280;51070;52.236;-0.892;2023-04-24T12:48:29;100210.48;;;16.54;39.36
62928;BME280;51070;52.236;-0.892;2023-04-24T12:50:56;100207.15;;;16.31;39.59
62928;BME280;51070;52.236;-0.892;2023-04-24T12:53:22;100210.60;;;16.09;39.82
62928;BME280;51070;52.236;-0.892;2023-04-24T12:55:47;100210.39;;;15.88;40.50
62928;BME280;51070;52.236;-0.892;2023-04-24T12:58:19;100204.78;;;15.81;40.43